Kingston, Australia
Current Conditions -  °F | °C
As of 3:00 PM on Wednesday 26 Nov 2014 (Local Time) from YMHB Reporting Station
Rain Showers Rain Showers  
Wind Chill: 61°   Ceiling: 5500
Heat Index: 61°   Visibility: 6mi
Dew Point: 37°   Wind: 15mph
Humidity: 42%   Direction: 240°WSW
Pressure: 30"   Gusts: NA
Location:  42.97°S, 147.32°E
Report Text: YMHB 260400Z 24013KT 150V250 9999 VCSH FEW030 BKN055 16/03 Q1016
Loading
Personal Weather Stations






























Interactive Weather Map New forecast layout! Learn more

10-Day Weather Forecast

Advertisements
Track Severe Weather on mobile